Cleghorn, Iowa
Current Conditions -  °F | °C
As of 3:35 AM on Wednesday 22 Oct 2014 (Local Time) from KCKP Reporting Station
Overcast Overcast  
Wind Chill: 51°   Ceiling: 5500
Heat Index: 51°   Visibility: 10mi
Dew Point: 44°   Wind: 12mph
Humidity: 77%   Direction: 170°S
Pressure: 30.1"   Gusts: 16mph
Location:  42.81°N, 95.71°W
Report Text: KCKP 220835Z AUTO 17010G14KT 10SM OVC055 10/07 A3010 RMK AO2 T01030065
Loading
Personal Weather Stations






























Interactive Weather Map
Tropical Storm Tracking
New forecast layout! Learn more

10-Day Weather Forecast

Advertisements
Track Severe Weather on mobile